sensor_id;sensor_type;location;lat;lon;timestamp;temperature;humidity
8824;DHT22;4448;50.904;4.694;2023-04-24T00:00:55;11.30;99.90
8824;DHT22;4448;50.904;4.694;2023-04-24T00:03:26;11.30;99.90
8824;DHT22;4448;50.904;4.694;2023-04-24T00:05:54;11.30;99.90
8824;DHT22;4448;50.904;4.694;2023-04-24T00:08:20;11.30;99.90
8824;DHT22;4448;50.904;4.694;2023-04-24T00:10:46;11.30;99.90
8824;DHT22;4448;50.904;4.694;2023-04-24T00:13:12;11.30;99.90
8824;DHT22;4448;50.904;4.694;2023-04-24T00:15:37;11.30;99.90
8824;DHT22;4448;50.904;4.694;2023-04-24T00:18:03;11.30;99.90
8824;DHT22;4448;50.904;4.694;2023-04-24T00:20:29;11.30;99.90
8824;DHT22;4448;50.904;4.694;2023-04-24T00:22:55;11.30;99.90
8824;DHT22;4448;50.904;4.694;2023-04-24T00:25:21;11.30;99.90
8824;DHT22;4448;50.904;4.694;2023-04-24T00:27:47;11.30;99.90
8824;DHT22;4448;50.904;4.694;2023-04-24T00:30:12;11.30;99.90
8824;DHT22;4448;50.904;4.694;2023-04-24T00:32:38;11.30;99.90
8824;DHT22;4448;50.904;4.694;2023-04-24T00:35:04;11.30;99.90
8824;DHT22;4448;50.904;4.694;2023-04-24T00:37:31;11.30;99.90
8824;DHT22;4448;50.904;4.694;2023-04-24T00:39:57;11.30;99.90
8824;DHT22;4448;50.904;4.694;2023-04-24T00:42:23;11.30;99.90
8824;DHT22;4448;50.904;4.694;2023-04-24T00:44:49;11.30;99.90
8824;DHT22;4448;50.904;4.694;2023-04-24T00:47:15;11.30;99.90
8824;DHT22;4448;50.904;4.694;2023-04-24T00:49:41;11.30;99.90
8824;DHT22;4448;50.904;4.694;2023-04-24T00:52:06;11.20;99.90
8824;DHT22;4448;50.904;4.694;2023-04-24T00:54:35;11.20;99.90
8824;DHT22;4448;50.904;4.694;2023-04-24T00:57:02;11.20;99.90
8824;DHT22;4448;50.904;4.694;2023-04-24T00:59:29;11.20;99.90
8824;DHT22;4448;50.904;4.694;2023-04-24T01:01:55;11.20;99.90
8824;DHT22;4448;50.904;4.694;2023-04-24T01:04:23;11.20;99.90
8824;DHT22;4448;50.904;4.694;2023-04-24T01:06:50;11.20;99.90
8824;DHT22;4448;50.904;4.694;2023-04-24T01:09:16;11.10;99.90
8824;DHT22;4448;50.904;4.694;2023-04-24T01:11:42;11.10;99.90
8824;DHT22;4448;50.904;4.694;2023-04-24T01:14:08;11.10;99.90
8824;DHT22;4448;50.904;4.694;2023-04-24T01:16:34;11.10;99.90
8824;DHT22;4448;50.904;4.694;2023-04-24T01:19:01;11.10;99.90
8824;DHT22;4448;50.904;4.694;2023-04-24T01:21:27;11.10;99.90
8824;DHT22;4448;50.904;4.694;2023-04-24T01:23:54;11.10;99.90
8824;DHT22;4448;50.904;4.694;2023-04-24T01:26:22;11.10;99.90
8824;DHT22;4448;50.904;4.694;2023-04-24T01:28:48;11.10;99.90
8824;DHT22;4448;50.904;4.694;2023-04-24T01:31:15;11.10;99.90
8824;DHT22;4448;50.904;4.694;2023-04-24T01:33:42;11.10;99.90
8824;DHT22;4448;50.904;4.694;2023-04-24T01:36:12;11.10;99.90
8824;DHT22;4448;50.904;4.694;2023-04-24T01:38:38;11.10;99.90
8824;DHT22;4448;50.904;4.694;2023-04-24T01:41:04;11.10;99.90
8824;DHT22;4448;50.904;4.694;2023-04-24T01:43:31;11.10;99.90
8824;DHT22;4448;50.904;4.694;2023-04-24T01:45:57;11.10;99.90
8824;DHT22;4448;50.904;4.694;2023-04-24T01:48:23;11.00;99.90
8824;DHT22;4448;50.904;4.694;2023-04-24T01:50:49;11.00;99.90
8824;DHT22;4448;50.904;4.694;2023-04-24T01:53:14;11.00;99.90
8824;DHT22;4448;50.904;4.694;2023-04-24T01:55:41;11.00;99.90
8824;DHT22;4448;50.904;4.694;2023-04-24T01:58:06;11.00;99.90
8824;DHT22;4448;50.904;4.694;2023-04-24T02:00:33;11.00;99.90
8824;DHT22;4448;50.904;4.694;2023-04-24T02:02:58;11.00;99.90
8824;DHT22;4448;50.904;4.694;2023-04-24T02:05:24;11.00;99.90
8824;DHT22;4448;50.904;4.694;2023-04-24T02:07:50;11.00;99.90
8824;DHT22;4448;50.904;4.694;2023-04-24T02:10:15;10.90;99.90
8824;DHT22;4448;50.904;4.694;2023-04-24T02:12:41;10.90;99.90
8824;DHT22;4448;50.904;4.694;2023-04-24T02:15:07;10.90;99.90
8824;DHT22;4448;50.904;4.694;2023-04-24T02:17:33;10.90;99.90
8824;DHT22;4448;50.904;4.694;2023-04-24T02:19:58;10.90;99.90
8824;DHT22;4448;50.904;4.694;2023-04-24T02:22:24;10.90;99.90
8824;DHT22;4448;50.904;4.694;2023-04-24T02:24:50;10.90;99.90
8824;DHT22;4448;50.904;4.694;2023-04-24T02:27:15;10.90;99.90
8824;DHT22;4448;50.904;4.694;2023-04-24T02:29:41;10.90;99.90
8824;DHT22;4448;50.904;4.694;2023-04-24T02:32:07;10.80;99.90
8824;DHT22;4448;50.904;4.694;2023-04-24T02:34:36;10.80;99.90
8824;DHT22;4448;50.904;4.694;2023-04-24T02:37:02;10.80;99.90
8824;DHT22;4448;50.904;4.694;2023-04-24T02:39:28;10.80;99.90
8824;DHT22;4448;50.904;4.694;2023-04-24T02:41:53;10.80;99.90
8824;DHT22;4448;50.904;4.694;2023-04-24T02:44:19;10.80;99.90
8824;DHT22;4448;50.904;4.694;2023-04-24T02:46:46;10.80;99.90
8824;DHT22;4448;50.904;4.694;2023-04-24T02:49:11;10.80;99.90
8824;DHT22;4448;50.904;4.694;2023-04-24T02:51:37;10.80;99.90
8824;DHT22;4448;50.904;4.694;2023-04-24T02:54:09;10.80;99.90
8824;DHT22;4448;50.904;4.694;2023-04-24T02:56:37;10.80;99.90
8824;DHT22;4448;50.904;4.694;2023-04-24T02:59:03;10.80;99.90
8824;DHT22;4448;50.904;4.694;2023-04-24T03:01:29;10.80;99.90
8824;DHT22;4448;50.904;4.694;2023-04-24T03:03:55;10.80;99.90
8824;DHT22;4448;50.904;4.694;2023-04-24T03:06:20;10.80;99.90
8824;DHT22;4448;50.904;4.694;2023-04-24T03:08:47;10.70;99.90
8824;DHT22;4448;50.904;4.694;2023-04-24T03:11:13;10.70;99.90
8824;DHT22;4448;50.904;4.694;2023-04-24T03:13:39;10.70;99.90
8824;DHT22;4448;50.904;4.694;2023-04-24T03:16:05;10.70;99.90
8824;DHT22;4448;50.904;4.694;2023-04-24T03:18:31;10.70;99.90
8824;DHT22;4448;50.904;4.694;2023-04-24T03:20:56;10.70;99.90
8824;DHT22;4448;50.904;4.694;2023-04-24T03:23:22;10.70;99.90
8824;DHT22;4448;50.904;4.694;2023-04-24T03:25:48;10.70;99.90
8824;DHT22;4448;50.904;4.694;2023-04-24T03:28:14;10.70;99.90
8824;DHT22;4448;50.904;4.694;2023-04-24T03:30:40;10.60;99.90
8824;DHT22;4448;50.904;4.694;2023-04-24T03:33:06;10.60;99.90
8824;DHT22;4448;50.904;4.694;2023-04-24T03:35:31;10.60;99.90
8824;DHT22;4448;50.904;4.694;2023-04-24T03:37:57;10.60;99.90
8824;DHT22;4448;50.904;4.694;2023-04-24T03:40:23;10.60;99.90
8824;DHT22;4448;50.904;4.694;2023-04-24T03:42:48;10.60;99.90
8824;DHT22;4448;50.904;4.694;2023-04-24T03:45:14;10.60;99.90
8824;DHT22;4448;50.904;4.694;2023-04-24T03:47:40;10.60;99.90
8824;DHT22;4448;50.904;4.694;2023-04-24T03:50:06;10.60;99.90
8824;DHT22;4448;50.904;4.694;2023-04-24T03:52:32;10.60;99.90
8824;DHT22;4448;50.904;4.694;2023-04-24T03:54:57;10.60;99.90
8824;DHT22;4448;50.904;4.694;2023-04-24T03:57:23;10.60;99.90
8824;DHT22;4448;50.904;4.694;2023-04-24T03:59:49;10.60;99.90
8824;DHT22;4448;50.904;4.694;2023-04-24T04:02:14;10.50;99.90
8824;DHT22;4448;50.904;4.694;2023-04-24T04:04:40;10.50;99.90
8824;DHT22;4448;50.904;4.694;2023-04-24T04:07:06;10.60;99.90
8824;DHT22;4448;50.904;4.694;2023-04-24T04:09:32;10.60;99.90
8824;DHT22;4448;50.904;4.694;2023-04-24T04:11:58;10.60;99.90
8824;DHT22;4448;50.904;4.694;2023-04-24T04:14:24;10.60;99.90
8824;DHT22;4448;50.904;4.694;2023-04-24T04:16:49;10.60;99.90
8824;DHT22;4448;50.904;4.694;2023-04-24T04:19:15;10.60;99.90
8824;DHT22;4448;50.904;4.694;2023-04-24T04:21:41;10.60;99.90
8824;DHT22;4448;50.904;4.694;2023-04-24T04:24:06;10.60;99.90
8824;DHT22;4448;50.904;4.694;2023-04-24T04:26:32;10.60;99.90
8824;DHT22;4448;50.904;4.694;2023-04-24T04:28:59;10.60;99.90
8824;DHT22;4448;50.904;4.694;2023-04-24T04:31:26;10.60;99.90
8824;DHT22;4448;50.904;4.694;2023-04-24T04:33:51;10.60;99.90
8824;DHT22;4448;50.904;4.694;2023-04-24T04:36:17;10.60;99.90
8824;DHT22;4448;50.904;4.694;2023-04-24T04:38:43;10.70;99.90
8824;DHT22;4448;50.904;4.694;2023-04-24T04:41:10;10.70;99.90
8824;DHT22;4448;50.904;4.694;2023-04-24T04:43:36;10.70;99.90
8824;DHT22;4448;50.904;4.694;2023-04-24T04:46:02;10.70;99.90
8824;DHT22;4448;50.904;4.694;2023-04-24T04:48:28;10.70;99.90
8824;DHT22;4448;50.904;4.694;2023-04-24T04:50:57;10.70;99.90
8824;DHT22;4448;50.904;4.694;2023-04-24T04:53:22;10.70;99.90
8824;DHT22;4448;50.904;4.694;2023-04-24T04:55:49;10.70;99.90
8824;DHT22;4448;50.904;4.694;2023-04-24T04:58:17;10.70;99.90
8824;DHT22;4448;50.904;4.694;2023-04-24T05:00:42;10.70;99.90
8824;DHT22;4448;50.904;4.694;2023-04-24T05:03:08;10.70;99.90
8824;DHT22;4448;50.904;4.694;2023-04-24T05:05:34;10.70;99.90
8824;DHT22;4448;50.904;4.694;2023-04-24T05:07:59;10.70;99.90
8824;DHT22;4448;50.904;4.694;2023-04-24T05:10:25;10.70;99.90
8824;DHT22;4448;50.904;4.694;2023-04-24T05:12:51;10.70;99.90
8824;DHT22;4448;50.904;4.694;2023-04-24T05:15:16;10.70;99.90
8824;DHT22;4448;50.904;4.694;2023-04-24T05:17:42;10.70;99.90
8824;DHT22;4448;50.904;4.694;2023-04-24T05:20:08;10.70;99.90
8824;DHT22;4448;50.904;4.694;2023-04-24T05:22:35;10.70;99.90
8824;DHT22;4448;50.904;4.694;2023-04-24T05:25:01;10.70;99.90
8824;DHT22;4448;50.904;4.694;2023-04-24T05:27:27;10.70;99.90
8824;DHT22;4448;50.904;4.694;2023-04-24T05:29:53;10.70;99.90
8824;DHT22;4448;50.904;4.694;2023-04-24T05:32:19;10.70;99.90
8824;DHT22;4448;50.904;4.694;2023-04-24T05:34:44;10.70;99.90
8824;DHT22;4448;50.904;4.694;2023-04-24T05:37:10;10.80;99.90
8824;DHT22;4448;50.904;4.694;2023-04-24T05:39:36;10.70;99.90
8824;DHT22;4448;50.904;4.694;2023-04-24T05:42:02;10.70;99.90
8824;DHT22;4448;50.904;4.694;2023-04-24T05:44:30;10.70;99.90
8824;DHT22;4448;50.904;4.694;2023-04-24T05:46:56;10.70;99.90
8824;DHT22;4448;50.904;4.694;2023-04-24T05:49:22;10.70;99.90
8824;DHT22;4448;50.904;4.694;2023-04-24T05:51:47;10.70;99.90
8824;DHT22;4448;50.904;4.694;2023-04-24T05:54:13;10.80;99.90
8824;DHT22;4448;50.904;4.694;2023-04-24T05:56:39;10.80;99.90
8824;DHT22;4448;50.904;4.694;2023-04-24T05:59:06;10.70;99.90
8824;DHT22;4448;50.904;4.694;2023-04-24T06:01:31;10.80;99.90
8824;DHT22;4448;50.904;4.694;2023-04-24T06:03:58;10.70;99.90
8824;DHT22;4448;50.904;4.694;2023-04-24T06:06:24;10.70;99.90
8824;DHT22;4448;50.904;4.694;2023-04-24T06:08:49;10.70;99.90
8824;DHT22;4448;50.904;4.694;2023-04-24T06:11:15;10.70;99.90
8824;DHT22;4448;50.904;4.694;2023-04-24T06:13:41;10.70;99.90
8824;DHT22;4448;50.904;4.694;2023-04-24T06:16:07;10.70;99.90
8824;DHT22;4448;50.904;4.694;2023-04-24T06:18:33;10.70;99.90
8824;DHT22;4448;50.904;4.694;2023-04-24T06:20:59;10.70;99.90
8824;DHT22;4448;50.904;4.694;2023-04-24T06:23:24;10.70;99.90
8824;DHT22;4448;50.904;4.694;2023-04-24T06:25:51;10.70;99.90
8824;DHT22;4448;50.904;4.694;2023-04-24T06:28:16;10.70;99.90
8824;DHT22;4448;50.904;4.694;2023-04-24T06:30:42;10.70;99.90
8824;DHT22;4448;50.904;4.694;2023-04-24T06:33:08;10.70;99.90
8824;DHT22;4448;50.904;4.694;2023-04-24T06:35:34;10.70;99.90
8824;DHT22;4448;50.904;4.694;2023-04-24T06:38:00;10.70;99.90
8824;DHT22;4448;50.904;4.694;2023-04-24T06:40:26;10.70;99.90
8824;DHT22;4448;50.904;4.694;2023-04-24T06:42:52;10.70;99.90
8824;DHT22;4448;50.904;4.694;2023-04-24T06:45:18;10.70;99.90
8824;DHT22;4448;50.904;4.694;2023-04-24T06:47:44;10.70;99.90
8824;DHT22;4448;50.904;4.694;2023-04-24T06:50:10;10.70;99.90
8824;DHT22;4448;50.904;4.694;2023-04-24T06:52:36;10.70;99.90
8824;DHT22;4448;50.904;4.694;2023-04-24T06:55:03;10.70;99.90
8824;DHT22;4448;50.904;4.694;2023-04-24T06:57:29;10.70;99.90
8824;DHT22;4448;50.904;4.694;2023-04-24T06:59:55;10.70;99.90
8824;DHT22;4448;50.904;4.694;2023-04-24T07:02:21;10.70;99.90
8824;DHT22;4448;50.904;4.694;2023-04-24T07:04:47;10.70;99.90
8824;DHT22;4448;50.904;4.694;2023-04-24T07:07:13;10.70;99.90
8824;DHT22;4448;50.904;4.694;2023-04-24T07:09:42;10.70;99.90
8824;DHT22;4448;50.904;4.694;2023-04-24T07:12:11;10.70;99.90
8824;DHT22;4448;50.904;4.694;2023-04-24T07:14:37;10.70;99.90
8824;DHT22;4448;50.904;4.694;2023-04-24T07:17:04;10.70;99.90
8824;DHT22;4448;50.904;4.694;2023-04-24T07:19:30;10.70;99.90
8824;DHT22;4448;50.904;4.694;2023-04-24T07:21:56;10.70;99.90
8824;DHT22;4448;50.904;4.694;2023-04-24T07:24:24;10.70;99.90
8824;DHT22;4448;50.904;4.694;2023-04-24T07:26:51;10.80;99.90
8824;DHT22;4448;50.904;4.694;2023-04-24T07:29:18;10.70;99.90
8824;DHT22;4448;50.904;4.694;2023-04-24T07:31:44;10.80;99.90
8824;DHT22;4448;50.904;4.694;2023-04-24T07:34:09;10.80;99.90
8824;DHT22;4448;50.904;4.694;2023-04-24T07:36:35;10.80;99.90
8824;DHT22;4448;50.904;4.694;2023-04-24T07:39:04;10.80;99.90
8824;DHT22;4448;50.904;4.694;2023-04-24T07:41:29;10.80;99.90
8824;DHT22;4448;50.904;4.694;2023-04-24T07:43:55;10.80;99.90
8824;DHT22;4448;50.904;4.694;2023-04-24T07:46:21;10.80;99.90
8824;DHT22;4448;50.904;4.694;2023-04-24T07:48:47;10.90;99.90
8824;DHT22;4448;50.904;4.694;2023-04-24T07:51:14;10.80;99.90
8824;DHT22;4448;50.904;4.694;2023-04-24T07:53:41;10.80;99.90
8824;DHT22;4448;50.904;4.694;2023-04-24T07:56:06;10.80;99.90
8824;DHT22;4448;50.904;4.694;2023-04-24T07:58:32;10.90;99.90
8824;DHT22;4448;50.904;4.694;2023-04-24T08:00:58;10.90;99.90
8824;DHT22;4448;50.904;4.694;2023-04-24T08:03:24;10.80;99.90
8824;DHT22;4448;50.904;4.694;2023-04-24T08:05:50;10.90;99.90
8824;DHT22;4448;50.904;4.694;2023-04-24T08:08:16;10.90;99.90
8824;DHT22;4448;50.904;4.694;2023-04-24T08:10:42;10.90;99.90
8824;DHT22;4448;50.904;4.694;2023-04-24T08:13:08;11.00;99.90
8824;DHT22;4448;50.904;4.694;2023-04-24T08:15:34;11.00;99.90
8824;DHT22;4448;50.904;4.694;2023-04-24T08:17:59;11.10;99.90
8824;DHT22;4448;50.904;4.694;2023-04-24T08:20:25;11.20;99.90
8824;DHT22;4448;50.904;4.694;2023-04-24T08:22:51;11.20;99.90
8824;DHT22;4448;50.904;4.694;2023-04-24T08:25:16;11.30;99.90
8824;DHT22;4448;50.904;4.694;2023-04-24T08:27:43;11.30;99.90
8824;DHT22;4448;50.904;4.694;2023-04-24T08:30:09;11.30;99.90
8824;DHT22;4448;50.904;4.694;2023-04-24T08:32:36;11.30;99.90
8824;DHT22;4448;50.904;4.694;2023-04-24T08:35:02;11.40;99.90
8824;DHT22;4448;50.904;4.694;2023-04-24T08:37:28;11.40;99.90
8824;DHT22;4448;50.904;4.694;2023-04-24T08:39:54;11.40;99.90
8824;DHT22;4448;50.904;4.694;2023-04-24T08:42:20;11.40;99.90
8824;DHT22;4448;50.904;4.694;2023-04-24T08:44:48;11.40;99.90
8824;DHT22;4448;50.904;4.694;2023-04-24T08:47:15;11.40;99.90
8824;DHT22;4448;50.904;4.694;2023-04-24T08:49:41;11.40;99.90
8824;DHT22;4448;50.904;4.694;2023-04-24T08:52:08;11.40;99.90
8824;DHT22;4448;50.904;4.694;2023-04-24T08:54:35;11.50;99.90
8824;DHT22;4448;50.904;4.694;2023-04-24T08:57:02;11.60;99.90
8824;DHT22;4448;50.904;4.694;2023-04-24T08:59:30;11.70;99.90
8824;DHT22;4448;50.904;4.694;2023-04-24T09:01:56;11.70;99.90
8824;DHT22;4448;50.904;4.694;2023-04-24T09:04:23;11.80;99.90
8824;DHT22;4448;50.904;4.694;2023-04-24T09:06:59;11.80;99.90
8824;DHT22;4448;50.904;4.694;2023-04-24T09:09:26;11.80;99.90
8824;DHT22;4448;50.904;4.694;2023-04-24T09:11:53;11.80;99.90
8824;DHT22;4448;50.904;4.694;2023-04-24T09:14:22;11.80;99.90
8824;DHT22;4448;50.904;4.694;2023-04-24T09:16:50;11.80;99.90
8824;DHT22;4448;50.904;4.694;2023-04-24T09:19:15;11.70;99.90
8824;DHT22;4448;50.904;4.694;2023-04-24T09:21:45;11.70;99.90
8824;DHT22;4448;50.904;4.694;2023-04-24T09:24:21;11.70;99.90
8824;DHT22;4448;50.904;4.694;2023-04-24T09:26:59;11.70;99.90
8824;DHT22;4448;50.904;4.694;2023-04-24T09:29:27;11.80;99.90
8824;DHT22;4448;50.904;4.694;2023-04-24T09:31:53;11.90;99.90
8824;DHT22;4448;50.904;4.694;2023-04-24T09:34:23;11.90;99.90
8824;DHT22;4448;50.904;4.694;2023-04-24T09:36:49;12.10;99.90
8824;DHT22;4448;50.904;4.694;2023-04-24T09:39:16;12.20;99.90
8824;DHT22;4448;50.904;4.694;2023-04-24T09:41:54;12.30;99.90
8824;DHT22;4448;50.904;4.694;2023-04-24T09:44:27;12.30;99.90
8824;DHT22;4448;50.904;4.694;2023-04-24T09:46:55;12.40;99.90
8824;DHT22;4448;50.904;4.694;2023-04-24T09:49:24;12.30;99.90
8824;DHT22;4448;50.904;4.694;2023-04-24T09:51:50;12.30;99.90
8824;DHT22;4448;50.904;4.694;2023-04-24T09:54:21;12.30;99.90
8824;DHT22;4448;50.904;4.694;2023-04-24T09:56:48;12.20;99.90
8824;DHT22;4448;50.904;4.694;2023-04-24T09:59:16;12.20;99.90
8824;DHT22;4448;50.904;4.694;2023-04-24T10:01:42;12.20;99.90
8824;DHT22;4448;50.904;4.694;2023-04-24T10:06:47;12.20;99.90
8824;DHT22;4448;50.904;4.694;2023-04-24T10:09:15;12.30;99.90
8824;DHT22;4448;50.904;4.694;2023-04-24T10:11:46;12.50;99.90
8824;DHT22;4448;50.904;4.694;2023-04-24T10:14:18;12.60;99.90
8824;DHT22;4448;50.904;4.694;2023-04-24T10:16:44;12.60;99.90
8824;DHT22;4448;50.904;4.694;2023-04-24T10:19:12;12.70;99.90
8824;DHT22;4448;50.904;4.694;2023-04-24T10:21:40;12.70;99.90
8824;DHT22;4448;50.904;4.694;2023-04-24T10:24:08;12.60;99.90
8824;DHT22;4448;50.904;4.694;2023-04-24T10:26:34;12.60;99.90
8824;DHT22;4448;50.904;4.694;2023-04-24T10:29:01;12.60;99.90
8824;DHT22;4448;50.904;4.694;2023-04-24T10:31:30;12.60;99.90
8824;DHT22;4448;50.904;4.694;2023-04-24T10:33:56;12.70;99.90
8824;DHT22;4448;50.904;4.694;2023-04-24T10:36:24;12.80;99.90
8824;DHT22;4448;50.904;4.694;2023-04-24T10:38:53;12.90;99.90
8824;DHT22;4448;50.904;4.694;2023-04-24T10:41:20;13.00;99.90
8824;DHT22;4448;50.904;4.694;2023-04-24T10:44:03;13.10;99.90
8824;DHT22;4448;50.904;4.694;2023-04-24T10:46:30;13.10;99.90
8824;DHT22;4448;50.904;4.694;2023-04-24T10:48:56;13.10;99.90
8824;DHT22;4448;50.904;4.694;2023-04-24T10:51:24;13.20;99.90
8824;DHT22;4448;50.904;4.694;2023-04-24T10:53:53;13.20;99.90
8824;DHT22;4448;50.904;4.694;2023-04-24T10:56:18;13.20;99.90
8824;DHT22;4448;50.904;4.694;2023-04-24T10:58:49;13.20;99.90
8824;DHT22;4448;50.904;4.694;2023-04-24T11:01:44;13.10;99.90
8824;DHT22;4448;50.904;4.694;2023-04-24T11:04:29;13.10;99.90
8824;DHT22;4448;50.904;4.694;2023-04-24T11:06:55;13.10;99.90
8824;DHT22;4448;50.904;4.694;2023-04-24T11:09:21;13.10;99.90
8824;DHT22;4448;50.904;4.694;2023-04-24T11:11:47;13.10;99.90
8824;DHT22;4448;50.904;4.694;2023-04-24T11:14:16;13.10;99.90
8824;DHT22;4448;50.904;4.694;2023-04-24T11:16:51;13.20;99.90
8824;DHT22;4448;50.904;4.694;2023-04-24T11:19:27;13.20;99.90
8824;DHT22;4448;50.904;4.694;2023-04-24T11:22:02;13.30;99.90
8824;DHT22;4448;50.904;4.694;2023-04-24T11:24:32;13.30;99.90
8824;DHT22;4448;50.904;4.694;2023-04-24T11:26:59;13.30;99.90
8824;DHT22;4448;50.904;4.694;2023-04-24T11:32:38;13.40;99.90
8824;DHT22;4448;50.904;4.694;2023-04-24T11:35:16;13.40;99.90
8824;DHT22;4448;50.904;4.694;2023-04-24T11:40:10;13.50;99.90
8824;DHT22;4448;50.904;4.694;2023-04-24T11:42:38;13.50;99.90
8824;DHT22;4448;50.904;4.694;2023-04-24T11:47:37;13.60;99.90
8824;DHT22;4448;50.904;4.694;2023-04-24T11:50:04;13.60;99.90
8824;DHT22;4448;50.904;4.694;2023-04-24T11:52:31;13.70;99.90
8824;DHT22;4448;50.904;4.694;2023-04-24T11:54:57;13.80;99.90
8824;DHT22;4448;50.904;4.694;2023-04-24T11:57:24;13.80;99.90
8824;DHT22;4448;50.904;4.694;2023-04-24T11:59:53;13.90;99.90
8824;DHT22;4448;50.904;4.694;2023-04-24T12:02:26;13.90;99.90
8824;DHT22;4448;50.904;4.694;2023-04-24T12:04:54;14.00;99.90
8824;DHT22;4448;50.904;4.694;2023-04-24T12:07:21;14.00;99.90
8824;DHT22;4448;50.904;4.694;2023-04-24T12:09:55;14.00;99.90
8824;DHT22;4448;50.904;4.694;2023-04-24T12:12:25;14.00;99.90
8824;DHT22;4448;50.904;4.694;2023-04-24T12:14:56;14.00;99.90
8824;DHT22;4448;50.904;4.694;2023-04-24T12:19:52;13.90;99.90
8824;DHT22;4448;50.904;4.694;2023-04-24T12:22:22;14.00;99.90
8824;DHT22;4448;50.904;4.694;2023-04-24T12:25:02;14.10;99.90
8824;DHT22;4448;50.904;4.694;2023-04-24T12:27:30;14.20;99.90
8824;DHT22;4448;50.904;4.694;2023-04-24T12:29:58;14.40;99.90
8824;DHT22;4448;50.904;4.694;2023-04-24T12:32:24;14.50;99.90
8824;DHT22;4448;50.904;4.694;2023-04-24T12:34:54;14.60;99.90
8824;DHT22;4448;50.904;4.694;2023-04-24T12:37:22;14.60;99.90
8824;DHT22;4448;50.904;4.694;2023-04-24T12:40:06;14.60;99.90
8824;DHT22;4448;50.904;4.694;2023-04-24T12:42:33;14.60;99.90
8824;DHT22;4448;50.904;4.694;2023-04-24T12:45:01;14.60;99.90
8824;DHT22;4448;50.904;4.694;2023-04-24T12:47:28;14.70;99.90
8824;DHT22;4448;50.904;4.694;2023-04-24T12:49:54;14.60;99.90
8824;DHT22;4448;50.904;4.694;2023-04-24T12:52:24;14.60;99.90
8824;DHT22;4448;50.904;4.694;2023-04-24T12:54:53;14.60;99.90
8824;DHT22;4448;50.904;4.694;2023-04-24T12:57:20;14.60;99.90
8824;DHT22;4448;50.904;4.694;2023-04-24T12:59:46;14.60;99.90
8824;DHT22;4448;50.904;4.694;2023-04-24T13:02:12;14.60;99.90
8824;DHT22;4448;50.904;4.694;2023-04-24T13:04:38;14.60;99.90
8824;DHT22;4448;50.904;4.694;2023-04-24T13:07:04;14.60;99.90
8824;DHT22;4448;50.904;4.694;2023-04-24T13:09:30;14.70;99.90
8824;DHT22;4448;50.904;4.694;2023-04-24T13:11:56;14.60;99.90
8824;DHT22;4448;50.904;4.694;2023-04-24T13:14:22;14.60;99.90
8824;DHT22;4448;50.904;4.694;2023-04-24T13:16:48;14.60;99.90
8824;DHT22;4448;50.904;4.694;2023-04-24T13:19:14;14.50;99.90
8824;DHT22;4448;50.904;4.694;2023-04-24T13:21:40;14.60;99.90
8824;DHT22;4448;50.904;4.694;2023-04-24T13:24:06;14.60;99.90
8824;DHT22;4448;50.904;4.694;2023-04-24T13:26:33;14.60;99.90
8824;DHT22;4448;50.904;4.694;2023-04-24T13:28:59;14.70;99.90
8824;DHT22;4448;50.904;4.694;2023-04-24T13:31:25;14.80;99.90
8824;DHT22;4448;50.904;4.694;2023-04-24T13:33:51;14.90;99.90
8824;DHT22;4448;50.904;4.694;2023-04-24T13:36:17;15.00;99.90
8824;DHT22;4448;50.904;4.694;2023-04-24T13:38:46;15.00;99.90
8824;DHT22;4448;50.904;4.694;2023-04-24T13:41:11;15.10;99.90
8824;DHT22;4448;50.904;4.694;2023-04-24T13:43:37;15.20;99.90
8824;DHT22;4448;50.904;4.694;2023-04-24T13:46:03;15.20;99.90
8824;DHT22;4448;50.904;4.694;2023-04-24T13:48:29;15.20;99.90
8824;DHT22;4448;50.904;4.694;2023-04-24T13:50:55;15.20;99.90
8824;DHT22;4448;50.904;4.694;2023-04-24T13:53:21;15.30;99.90
8824;DHT22;4448;50.904;4.694;2023-04-24T13:55:47;15.30;99.90
8824;DHT22;4448;50.904;4.694;2023-04-24T13:58:13;15.20;99.90
8824;DHT22;4448;50.904;4.694;2023-04-24T14:00:40;15.20;99.90
8824;DHT22;4448;50.904;4.694;2023-04-24T14:03:06;15.00;99.90
8824;DHT22;4448;50.904;4.694;2023-04-24T14:05:31;15.00;99.90
8824;DHT22;4448;50.904;4.694;2023-04-24T14:07:58;15.00;99.90
8824;DHT22;4448;50.904;4.694;2023-04-24T14:10:24;14.90;99.90
8824;DHT22;4448;50.904;4.694;2023-04-24T14:12:50;14.90;99.90
8824;DHT22;4448;50.904;4.694;2023-04-24T14:15:16;14.90;99.90
8824;DHT22;4448;50.904;4.694;2023-04-24T14:17:42;14.90;99.90
8824;DHT22;4448;50.904;4.694;2023-04-24T14:20:08;14.90;99.90
8824;DHT22;4448;50.904;4.694;2023-04-24T14:22:34;14.90;99.90
8824;DHT22;4448;50.904;4.694;2023-04-24T14:25:00;14.90;99.90
8824;DHT22;4448;50.904;4.694;2023-04-24T14:27:26;15.00;99.90
8824;DHT22;4448;50.904;4.694;2023-04-24T14:29:52;15.00;99.90
8824;DHT22;4448;50.904;4.694;2023-04-24T14:32:17;15.00;99.90
8824;DHT22;4448;50.904;4.694;2023-04-24T14:34:43;15.00;99.90
8824;DHT22;4448;50.904;4.694;2023-04-24T14:37:09;15.10;99.90
8824;DHT22;4448;50.904;4.694;2023-04-24T14:39:35;15.10;99.90
8824;DHT22;4448;50.904;4.694;2023-04-24T14:42:01;15.10;99.90
8824;DHT22;4448;50.904;4.694;2023-04-24T14:44:27;15.00;99.90
8824;DHT22;4448;50.904;4.694;2023-04-24T14:46:52;15.00;99.90
8824;DHT22;4448;50.904;4.694;2023-04-24T14:49:18;14.90;99.90
8824;DHT22;4448;50.904;4.694;2023-04-24T14:51:44;14.80;99.90
8824;DHT22;4448;50.904;4.694;2023-04-24T14:54:10;14.80;99.90
8824;DHT22;4448;50.904;4.694;2023-04-24T14:56:35;14.80;99.90
8824;DHT22;4448;50.904;4.694;2023-04-24T14:59:01;14.70;99.90
8824;DHT22;4448;50.904;4.694;2023-04-24T15:01:29;14.70;99.90
8824;DHT22;4448;50.904;4.694;2023-04-24T15:03:55;14.60;99.90
8824;DHT22;4448;50.904;4.694;2023-04-24T15:06:20;14.60;99.90
8824;DHT22;4448;50.904;4.694;2023-04-24T15:08:46;14.50;99.90
8824;DHT22;4448;50.904;4.694;2023-04-24T15:11:12;14.50;99.90
8824;DHT22;4448;50.904;4.694;2023-04-24T15:13:38;14.50;99.90
8824;DHT22;4448;50.904;4.694;2023-04-24T15:16:03;14.40;99.90
8824;DHT22;4448;50.904;4.694;2023-04-24T15:18:29;14.40;99.90
8824;DHT22;4448;50.904;4.694;2023-04-24T15:20:55;14.40;99.90
8824;DHT22;4448;50.904;4.694;2023-04-24T15:23:21;14.30;99.90
8824;DHT22;4448;50.904;4.694;2023-04-24T15:25:47;14.30;99.90
8824;DHT22;4448;50.904;4.694;2023-04-24T15:28:13;14.30;99.90
8824;DHT22;4448;50.904;4.694;2023-04-24T15:30:39;14.20;99.90
8824;DHT22;4448;50.904;4.694;2023-04-24T15:33:05;14.20;99.90
8824;DHT22;4448;50.904;4.694;2023-04-24T15:35:30;14.20;99.90
8824;DHT22;4448;50.904;4.694;2023-04-24T15:37:56;14.20;99.90
8824;DHT22;4448;50.904;4.694;2023-04-24T15:40:22;14.20;99.90
8824;DHT22;4448;50.904;4.694;2023-04-24T15:42:48;14.20;99.90
8824;DHT22;4448;50.904;4.694;2023-04-24T15:45:13;14.10;99.90
8824;DHT22;4448;50.904;4.694;2023-04-24T15:47:39;14.20;99.90
8824;DHT22;4448;50.904;4.694;2023-04-24T15:50:06;14.20;99.90
8824;DHT22;4448;50.904;4.694;2023-04-24T15:52:34;14.20;99.90
8824;DHT22;4448;50.904;4.694;2023-04-24T15:55:00;14.20;99.90
8824;DHT22;4448;50.904;4.694;2023-04-24T15:57:26;14.10;99.90
8824;DHT22;4448;50.904;4.694;2023-04-24T15:59:52;14.10;99.90
8824;DHT22;4448;50.904;4.694;2023-04-24T16:02:17;14.00;99.90
8824;DHT22;4448;50.904;4.694;2023-04-24T16:04:46;14.10;99.90
8824;DHT22;4448;50.904;4.694;2023-04-24T16:07:13;14.00;99.90
8824;DHT22;4448;50.904;4.694;2023-04-24T16:09:39;14.00;99.90
8824;DHT22;4448;50.904;4.694;2023-04-24T16:12:05;14.00;99.90